createdAt,value
2018-02-15T00:00:08.309Z,-0.35
2018-02-15T00:02:39.295Z,-0.40
2018-02-15T00:05:10.326Z,-0.44
2018-02-15T00:07:41.305Z,-0.43
2018-02-15T00:10:12.334Z,-0.42
2018-02-15T00:12:43.299Z,-0.40
2018-02-15T00:15:14.256Z,-0.41
2018-02-15T00:17:45.258Z,-0.40
2018-02-15T00:20:16.269Z,-0.40
2018-02-15T00:22:47.298Z,-0.42
2018-02-15T00:25:18.317Z,-0.41
2018-02-15T00:27:49.286Z,-0.42
2018-02-15T00:30:20.334Z,-0.42
2018-02-15T00:32:51.324Z,-0.43
2018-02-15T00:35:22.307Z,-0.46
2018-02-15T00:37:53.326Z,-0.49
2018-02-15T00:40:24.256Z,-0.52
2018-02-15T00:42:55.267Z,-0.54
2018-02-15T00:45:26.219Z,-0.56
2018-02-15T00:47:57.232Z,-0.62
2018-02-15T00:50:28.205Z,-0.61
2018-02-15T00:52:59.215Z,-0.62
2018-02-15T00:55:30.195Z,-0.68
2018-02-15T00:58:01.200Z,-0.68
2018-02-15T01:00:32.184Z,-0.67
2018-02-15T01:03:03.256Z,-0.69
2018-02-15T01:05:34.296Z,-0.69
2018-02-15T01:08:05.245Z,-0.69
2018-02-15T01:10:36.269Z,-0.70
2018-02-15T01:13:07.967Z,-0.73
2018-02-15T01:15:38.964Z,-0.77
2018-02-15T01:18:09.945Z,-0.78
2018-02-15T01:20:40.925Z,-0.79
2018-02-15T01:23:11.923Z,-0.81
2018-02-15T01:25:42.919Z,-0.81
2018-02-15T01:28:13.979Z,-0.86
2018-02-15T01:30:44.923Z,-0.92
2018-02-15T01:33:15.951Z,-0.91
2018-02-15T01:35:46.956Z,-0.92
2018-02-15T01:38:17.935Z,-0.96
2018-02-15T01:40:48.976Z,-0.95
2018-02-15T01:43:19.943Z,-0.95
2018-02-15T01:45:50.951Z,-0.95
2018-02-15T01:48:21.905Z,-0.96
2018-02-15T01:50:52.931Z,-0.96
2018-02-15T01:53:23.898Z,-0.98
2018-02-15T01:55:54.838Z,-1.01
2018-02-15T01:58:25.878Z,-1.07
2018-02-15T02:00:56.846Z,-1.08
2018-02-15T02:03:27.807Z,-1.08
2018-02-15T02:05:58.803Z,-1.07
2018-02-15T02:08:29.834Z,-1.10
2018-02-15T02:11:01.002Z,-1.09
2018-02-15T02:13:32.009Z,-1.13
2018-02-15T02:16:03.044Z,-1.13
2018-02-15T02:18:34.016Z,-1.12
2018-02-15T02:21:05.031Z,-1.06
2018-02-15T02:23:36.005Z,-1.03
2018-02-15T02:26:06.991Z,-1.05
2018-02-15T02:28:38.040Z,-1.04
2018-02-15T02:31:09.043Z,-1.02
2018-02-15T02:33:40.063Z,-1.05
2018-02-15T02:36:11.120Z,-1.03
2018-02-15T02:38:42.093Z,-1.04
2018-02-15T02:41:13.072Z,-1.01
2018-02-15T02:43:44.051Z,-0.99
2018-02-15T02:46:15.029Z,-1.01
2018-02-15T02:48:46.041Z,-0.99
2018-02-15T02:51:17.022Z,-1.00
2018-02-15T02:53:48.047Z,-1.06
2018-02-15T02:56:19.046Z,-1.06
2018-02-15T02:58:50.031Z,-1.09
2018-02-15T03:01:21.054Z,-1.10
2018-02-15T03:03:52.010Z,-1.10
2018-02-15T03:06:23.025Z,-1.13
2018-02-15T03:08:54.029Z,-1.18
2018-02-15T03:11:25.079Z,-1.23
2018-02-15T03:13:56.081Z,-1.18
2018-02-15T03:16:27.095Z,-1.19
2018-02-15T03:18:58.071Z,-1.16
2018-02-15T03:21:29.037Z,-1.13
2018-02-15T03:24:00.043Z,-1.10
2018-02-15T03:26:31.072Z,-1.15
2018-02-15T03:29:02.105Z,-1.13
2018-02-15T03:31:33.074Z,-1.16
2018-02-15T03:34:04.525Z,-1.08
2018-02-15T03:36:35.530Z,-1.06
2018-02-15T03:39:06.547Z,-0.95
2018-02-15T03:41:37.515Z,-0.91
2018-02-15T03:44:08.513Z,-0.86
2018-02-15T03:46:39.545Z,-0.85
2018-02-15T03:49:10.578Z,-0.81
2018-02-15T03:51:41.556Z,-0.79
2018-02-15T03:54:12.563Z,-0.69
2018-02-15T03:56:43.544Z,-0.60
2018-02-15T03:59:14.507Z,-0.55
2018-02-15T04:01:45.539Z,-0.55
2018-02-15T04:04:16.506Z,-0.54
2018-02-15T04:06:47.570Z,-0.48
2018-02-15T04:09:18.589Z,-0.55
2018-02-15T04:11:51.230Z,-0.52
2018-02-15T04:14:22.224Z,-0.53
2018-02-15T04:16:53.265Z,-0.47
2018-02-15T04:19:24.245Z,-0.41
2018-02-15T04:21:55.287Z,-0.31
2018-02-15T04:24:26.337Z,-0.23
2018-02-15T04:26:57.397Z,-0.13
2018-02-15T04:29:28.367Z,-0.01
2018-02-15T04:31:59.386Z,0.07
2018-02-15T04:34:30.392Z,0.16
2018-02-15T04:37:01.462Z,0.23
2018-02-15T04:39:32.493Z,0.31
2018-02-15T04:42:03.518Z,0.36
2018-02-15T04:44:34.490Z,0.43
2018-02-15T04:47:05.546Z,0.52
2018-02-15T04:49:36.549Z,0.55
2018-02-15T04:52:07.607Z,0.65
2018-02-15T04:54:38.577Z,0.76
2018-02-15T04:57:09.574Z,0.76
2018-02-15T04:59:40.544Z,0.68
2018-02-15T05:02:11.569Z,0.72
2018-02-15T05:04:42.554Z,0.80
2018-02-15T05:07:13.619Z,0.86
2018-02-15T05:09:44.619Z,0.90
2018-02-15T05:12:15.635Z,0.90
2018-02-15T05:14:46.689Z,0.86
2018-02-15T05:17:17.681Z,0.86
2018-02-15T05:19:48.736Z,0.82
2018-02-15T05:22:19.709Z,0.80
2018-02-15T05:24:50.707Z,0.80
2018-02-15T05:27:21.701Z,0.79
2018-02-15T05:29:52.734Z,0.76
2018-02-15T05:32:23.691Z,0.78
2018-02-15T05:34:56.499Z,0.75
2018-02-15T05:37:27.476Z,0.73
2018-02-15T05:39:58.523Z,0.72
2018-02-15T05:42:29.494Z,0.72
2018-02-15T05:45:00.496Z,0.62
2018-02-15T05:47:31.512Z,0.56
2018-02-15T05:50:02.531Z,0.53
2018-02-15T05:52:33.537Z,0.59
2018-02-15T05:55:04.526Z,0.62
2018-02-15T05:57:35.548Z,0.68
2018-02-15T06:00:06.589Z,0.76
2018-02-15T06:02:37.594Z,0.86
2018-02-15T06:05:08.549Z,0.90
2018-02-15T06:07:39.592Z,0.95
2018-02-15T06:10:10.643Z,1.02
2018-02-15T06:12:41.621Z,1.03
2018-02-15T06:15:12.696Z,1.06
2018-02-15T06:17:43.699Z,1.11
2018-02-15T06:20:14.745Z,1.15
2018-02-15T06:22:45.767Z,1.12
2018-02-15T06:25:16.800Z,1.17
2018-02-15T06:27:47.879Z,1.22
2018-02-15T06:30:18.916Z,1.17
2018-02-15T06:32:49.959Z,1.23
2018-02-15T06:35:20.955Z,1.30
2018-02-15T06:37:52.020Z,1.34
2018-02-15T06:40:23.021Z,1.39
2018-02-15T06:42:54.045Z,1.50
2018-02-15T06:45:25.142Z,1.60
2018-02-15T06:47:56.152Z,1.64
2018-02-15T06:50:27.201Z,1.68
2018-02-15T06:52:58.220Z,1.63
2018-02-15T06:55:29.261Z,1.57
2018-02-15T06:58:00.318Z,1.64
2018-02-15T07:00:31.305Z,1.66
2018-02-15T07:03:02.365Z,1.76
2018-02-15T07:05:33.428Z,1.81
2018-02-15T07:08:04.481Z,1.89
2018-02-15T07:10:35.492Z,2.03
2018-02-15T07:13:06.493Z,1.99
2018-02-15T07:15:37.485Z,2.05
2018-02-15T07:18:08.489Z,2.15
2018-02-15T07:20:39.586Z,2.14
2018-02-15T07:23:10.593Z,2.21
2018-02-15T07:25:41.675Z,2.21
2018-02-15T07:28:12.677Z,2.34
2018-02-15T07:30:43.760Z,2.50
2018-02-15T07:33:14.888Z,2.58
2018-02-15T07:35:45.949Z,2.73
2018-02-15T07:38:16.975Z,2.82
2018-02-15T07:40:48.014Z,2.90
2018-02-15T07:43:19.070Z,2.92
2018-02-15T07:45:50.108Z,3.00
2018-02-15T07:48:21.155Z,3.08
2018-02-15T07:50:52.225Z,2.98
2018-02-15T07:53:23.294Z,3.16
2018-02-15T07:55:54.414Z,3.34
2018-02-15T07:58:25.510Z,3.64
2018-02-15T08:00:57.526Z,3.86
2018-02-15T08:03:28.576Z,4.08
2018-02-15T08:05:59.651Z,4.25
2018-02-15T08:08:30.676Z,4.37
2018-02-15T08:11:01.688Z,4.64
2018-02-15T08:13:32.708Z,4.85
2018-02-15T08:16:03.749Z,5.14
2018-02-15T08:18:34.758Z,5.31
2018-02-15T08:21:05.736Z,5.64
2018-02-15T08:23:36.786Z,5.92
2018-02-15T08:26:07.858Z,6.05
2018-02-15T08:28:38.888Z,6.07
2018-02-15T08:31:09.967Z,6.31
2018-02-15T08:33:40.984Z,6.78
2018-02-15T08:36:12.020Z,6.96
2018-02-15T08:38:43.043Z,7.26
2018-02-15T08:41:14.138Z,7.49
2018-02-15T08:43:45.206Z,7.30
2018-02-15T08:46:16.226Z,7.12
2018-02-15T08:48:47.302Z,7.53
2018-02-15T08:51:18.374Z,7.88
2018-02-15T08:53:49.396Z,8.48
2018-02-15T08:56:20.410Z,8.95
2018-02-15T08:59:06.387Z,9.22
2018-02-15T09:01:37.420Z,9.34
2018-02-15T09:04:08.468Z,9.66
2018-02-15T09:06:39.528Z,9.77
2018-02-15T09:09:17.630Z,10.03
2018-02-15T09:11:48.663Z,9.75
2018-02-15T09:14:19.716Z,9.66
2018-02-15T09:16:50.724Z,9.73
2018-02-15T09:19:21.820Z,9.67
2018-02-15T09:21:52.863Z,9.44
2018-02-15T09:24:23.888Z,9.30
2018-02-15T09:26:54.909Z,9.29
2018-02-15T09:29:25.940Z,9.34
2018-02-15T09:31:56.999Z,9.42
2018-02-15T09:34:28.076Z,9.31
2018-02-15T09:36:59.088Z,9.75
2018-02-15T09:39:30.130Z,10.02
2018-02-15T09:42:01.209Z,10.12
2018-02-15T09:44:32.258Z,10.26
2018-02-15T09:47:03.281Z,10.11
2018-02-15T09:49:34.268Z,9.99
2018-02-15T09:52:05.306Z,9.58
2018-02-15T09:54:36.336Z,9.70
2018-02-15T09:57:07.381Z,9.67
2018-02-15T09:59:38.445Z,9.35
2018-02-15T10:02:09.482Z,9.09
2018-02-15T10:04:40.520Z,9.15
2018-02-15T10:07:11.570Z,9.24
2018-02-15T10:09:42.637Z,9.24
2018-02-15T10:12:13.685Z,9.49
2018-02-15T10:14:44.744Z,9.67
2018-02-15T10:17:15.769Z,9.59
2018-02-15T10:19:47.762Z,9.55
2018-02-15T10:22:18.791Z,9.45
2018-02-15T10:24:49.876Z,9.47
2018-02-15T10:27:20.924Z,9.58
2018-02-15T10:29:52.002Z,9.47
2018-02-15T10:32:23.049Z,9.58
2018-02-15T10:34:54.104Z,9.75
2018-02-15T10:37:25.112Z,9.52
2018-02-15T10:39:56.148Z,9.74
2018-02-15T10:42:27.224Z,10.19
2018-02-15T10:44:58.270Z,10.52
2018-02-15T10:47:29.320Z,10.91
2018-02-15T10:50:00.335Z,11.17
2018-02-15T10:52:31.418Z,10.96
2018-02-15T10:55:02.444Z,10.69
2018-02-15T10:57:33.510Z,10.54
2018-02-15T11:00:04.590Z,10.59
2018-02-15T11:02:35.656Z,10.58
2018-02-15T11:05:12.808Z,10.24
2018-02-15T11:07:43.874Z,10.21
2018-02-15T11:10:14.910Z,10.00
2018-02-15T11:12:45.958Z,10.03
2018-02-15T11:15:17.046Z,9.79
2018-02-15T11:17:48.089Z,9.64
2018-02-15T11:20:19.142Z,9.40
2018-02-15T11:22:50.189Z,9.20
2018-02-15T11:25:21.241Z,8.93
2018-02-15T11:27:52.315Z,8.88
2018-02-15T11:30:23.415Z,9.00
2018-02-15T11:32:54.424Z,9.17
2018-02-15T11:35:25.459Z,9.33
2018-02-15T11:37:56.503Z,9.45
2018-02-15T11:40:27.495Z,9.13
2018-02-15T11:42:58.520Z,9.29
2018-02-15T11:45:29.658Z,9.47
2018-02-15T11:48:00.728Z,9.68
2018-02-15T11:50:31.732Z,9.74
2018-02-15T11:53:02.799Z,9.82
2018-02-15T11:55:33.829Z,9.59
2018-02-15T11:58:04.873Z,9.42
2018-02-15T12:00:35.922Z,9.40
2018-02-15T12:03:06.967Z,9.29
2018-02-15T12:05:37.998Z,9.46
2018-02-15T12:08:09.044Z,9.62
2018-02-15T12:10:40.070Z,9.53
2018-02-15T12:13:11.149Z,9.72
2018-02-15T12:15:42.224Z,9.51
2018-02-15T12:18:13.251Z,9.43
2018-02-15T12:20:44.333Z,9.32
2018-02-15T12:23:15.359Z,9.24
2018-02-15T12:25:46.376Z,8.94
2018-02-15T12:28:18.070Z,8.91
2018-02-15T12:30:49.735Z,8.65
2018-02-15T12:33:20.810Z,8.57
2018-02-15T12:35:51.851Z,8.56
2018-02-15T12:38:22.908Z,8.69
2018-02-15T12:40:53.957Z,8.60
2018-02-15T12:43:24.998Z,8.69
2018-02-15T12:45:56.030Z,8.90
2018-02-15T12:48:27.079Z,9.05
2018-02-15T12:50:58.149Z,9.25
2018-02-15T12:53:29.197Z,9.36
2018-02-15T12:56:00.430Z,9.25
2018-02-15T12:58:31.452Z,8.87
2018-02-15T13:01:02.566Z,8.94
2018-02-15T13:03:33.589Z,9.03
2018-02-15T13:06:04.740Z,8.96
2018-02-15T13:08:35.758Z,8.87
2018-02-15T13:11:06.808Z,8.57
2018-02-15T13:13:37.862Z,8.38
2018-02-15T13:16:21.293Z,8.09
2018-02-15T13:19:04.592Z,7.81
2018-02-15T13:21:35.639Z,7.53
2018-02-15T13:24:06.679Z,7.59
2018-02-15T13:26:37.708Z,7.63
2018-02-15T13:29:08.762Z,7.55
2018-02-15T13:31:39.802Z,7.32
2018-02-15T13:34:11.045Z,7.40
2018-02-15T13:36:42.052Z,7.54
2018-02-15T13:39:13.076Z,7.54
2018-02-15T13:41:44.072Z,7.35
2018-02-15T13:44:15.138Z,7.43
2018-02-15T13:46:47.131Z,7.39
2018-02-15T13:49:18.191Z,7.23
2018-02-15T13:51:49.213Z,7.23
2018-02-15T13:54:20.430Z,7.16
2018-02-15T13:56:51.498Z,7.01
2018-02-15T13:59:22.533Z,6.85
2018-02-15T14:01:53.560Z,6.68
2018-02-15T14:04:24.621Z,6.59
2018-02-15T14:06:55.640Z,6.58
2018-02-15T14:09:26.699Z,6.35
2018-02-15T14:11:57.846Z,6.26
2018-02-15T14:14:28.914Z,6.22
2018-02-15T14:16:59.961Z,6.13
2018-02-15T14:19:30.981Z,6.10
2018-02-15T14:22:02.020Z,5.95
2018-02-15T14:24:33.012Z,5.80
2018-02-15T14:27:04.040Z,5.81
2018-02-15T14:29:36.100Z,5.85
2018-02-15T14:32:07.153Z,5.64
2018-02-15T14:34:38.202Z,5.46
2018-02-15T14:37:09.301Z,5.56
2018-02-15T14:39:40.336Z,5.73
2018-02-15T14:42:11.375Z,5.84
2018-02-15T14:44:42.486Z,5.95
2018-02-15T14:47:13.484Z,6.09
2018-02-15T14:49:44.535Z,5.81
2018-02-15T14:52:15.536Z,5.78
2018-02-15T14:54:46.552Z,5.70
2018-02-15T14:57:17.608Z,5.61
2018-02-15T14:59:48.699Z,5.39
2018-02-15T15:02:19.743Z,5.39
2018-02-15T15:04:50.778Z,5.40
2018-02-15T15:07:21.842Z,5.45
2018-02-15T15:09:52.828Z,5.41
2018-02-15T15:12:23.933Z,5.29
2018-02-15T15:14:54.959Z,5.31
2018-02-15T15:17:25.994Z,5.40
2018-02-15T15:19:57.068Z,5.35
2018-02-15T15:22:28.086Z,5.28
2018-02-15T15:24:59.095Z,5.29
2018-02-15T15:27:30.130Z,5.34
2018-02-15T15:30:01.184Z,5.43
2018-02-15T15:32:32.256Z,5.48
2018-02-15T15:35:03.342Z,5.60
2018-02-15T15:37:34.725Z,5.73
2018-02-15T15:40:05.860Z,5.77
2018-02-15T15:42:36.918Z,5.75
2018-02-15T15:45:07.929Z,5.76
2018-02-15T15:47:39.003Z,5.80
2018-02-15T15:50:10.050Z,5.81
2018-02-15T15:52:41.088Z,5.73
2018-02-15T15:55:12.141Z,5.53
2018-02-15T15:57:43.146Z,5.27
2018-02-15T16:00:14.186Z,5.10
2018-02-15T16:02:45.246Z,5.06
2018-02-15T16:05:16.280Z,5.03
2018-02-15T16:07:47.284Z,5.02
2018-02-15T16:10:18.294Z,5.03
2018-02-15T16:12:49.335Z,5.02
2018-02-15T16:15:20.424Z,5.02
2018-02-15T16:17:51.525Z,5.06
2018-02-15T16:20:22.523Z,5.05
2018-02-15T16:22:53.560Z,5.04
2018-02-15T16:25:24.589Z,5.03
2018-02-15T16:27:55.696Z,4.90
2018-02-15T16:30:26.776Z,4.78
2018-02-15T16:32:57.870Z,4.73
2018-02-15T16:35:28.912Z,4.75
2018-02-15T16:37:59.940Z,4.86
2018-02-15T16:40:31.002Z,4.85
2018-02-15T16:43:02.064Z,4.69
2018-02-15T16:45:33.221Z,4.76
2018-02-15T16:48:04.324Z,4.80
2018-02-15T16:50:35.370Z,4.77
2018-02-15T16:53:06.458Z,4.69
2018-02-15T16:55:37.492Z,4.69
2018-02-15T16:58:08.520Z,4.68
2018-02-15T17:00:39.553Z,4.52
2018-02-15T17:03:10.616Z,4.55
2018-02-15T17:05:41.613Z,4.60
2018-02-15T17:08:12.679Z,4.72
2018-02-15T17:10:43.708Z,4.83
2018-02-15T17:13:14.719Z,4.84
2018-02-15T17:15:45.756Z,4.85
2018-02-15T17:18:16.804Z,4.80
2018-02-15T17:20:47.845Z,4.75
2018-02-15T17:23:18.913Z,4.77
2018-02-15T17:25:49.992Z,4.81
2018-02-15T17:28:21.000Z,4.85
2018-02-15T17:30:59.160Z,4.88
2018-02-15T17:33:30.197Z,4.81
2018-02-15T17:36:01.251Z,4.73
2018-02-15T17:38:32.251Z,4.71
2018-02-15T17:41:03.325Z,4.66
2018-02-15T17:43:34.445Z,4.68
2018-02-15T17:46:05.438Z,4.75
2018-02-15T17:48:36.454Z,4.70
2018-02-15T17:51:07.520Z,4.70
2018-02-15T17:53:38.541Z,4.69
2018-02-15T17:56:09.579Z,4.75
2018-02-15T17:58:40.622Z,4.82
2018-02-15T18:01:11.667Z,4.82
2018-02-15T18:03:42.719Z,4.83
2018-02-15T18:06:13.784Z,4.80
2018-02-15T18:08:44.806Z,4.78
2018-02-15T18:11:15.833Z,4.84
2018-02-15T18:13:46.868Z,4.83
2018-02-15T18:16:17.890Z,4.88
2018-02-15T18:18:48.908Z,4.92
2018-02-15T18:21:19.939Z,4.97
2018-02-15T18:23:51.019Z,4.97
2018-02-15T18:26:22.052Z,4.86
2018-02-15T18:28:53.074Z,4.89
2018-02-15T18:31:24.221Z,4.97
2018-02-15T18:33:55.219Z,4.97
2018-02-15T18:36:26.284Z,5.00
2018-02-15T18:38:57.286Z,5.00
2018-02-15T18:41:28.329Z,4.85
2018-02-15T18:43:59.353Z,4.94
2018-02-15T18:46:30.471Z,5.06
2018-02-15T18:49:01.533Z,5.06
2018-02-15T18:51:32.547Z,5.08
2018-02-15T18:54:03.614Z,5.04
2018-02-15T18:56:34.642Z,5.03
2018-02-15T18:59:05.711Z,5.02
2018-02-15T19:01:36.742Z,5.09
2018-02-15T19:04:07.764Z,5.18
2018-02-15T19:06:38.808Z,5.17
2018-02-15T19:09:09.857Z,5.12
2018-02-15T19:11:40.895Z,5.13
2018-02-15T19:14:11.965Z,5.18
2018-02-15T19:16:43.650Z,5.20
2018-02-15T19:19:14.676Z,5.14
2018-02-15T19:21:45.773Z,5.19
2018-02-15T19:24:16.824Z,5.29
2018-02-15T19:26:47.818Z,5.23
2018-02-15T19:29:18.859Z,5.19
2018-02-15T19:31:49.900Z,5.24
2018-02-15T19:34:20.932Z,5.32
2018-02-15T19:36:51.962Z,5.34
2018-02-15T19:39:23.006Z,5.29
2018-02-15T19:41:54.072Z,5.23
2018-02-15T19:44:25.161Z,5.21
2018-02-15T19:46:56.190Z,5.26
2018-02-15T19:49:27.852Z,5.34
2018-02-15T19:51:58.843Z,5.41
2018-02-15T19:54:29.886Z,5.40
2018-02-15T19:57:00.911Z,5.40
2018-02-15T19:59:31.967Z,5.31
2018-02-15T20:02:03.015Z,5.31
2018-02-15T20:04:34.078Z,5.31
2018-02-15T20:07:05.156Z,5.30
2018-02-15T20:09:36.184Z,5.41
2018-02-15T20:12:07.239Z,5.48
2018-02-15T20:14:38.277Z,5.51
2018-02-15T20:17:09.304Z,5.54
2018-02-15T20:19:40.374Z,5.55
2018-02-15T20:22:11.365Z,5.48
2018-02-15T20:24:42.408Z,5.50
2018-02-15T20:27:19.588Z,5.56
2018-02-15T20:29:50.613Z,5.53
2018-02-15T20:32:21.621Z,5.55
2018-02-15T20:34:52.664Z,5.55
2018-02-15T20:37:24.648Z,5.56
2018-02-15T20:40:01.688Z,5.47
2018-02-15T20:42:32.721Z,5.48
2018-02-15T20:45:03.812Z,5.43
2018-02-15T20:47:34.837Z,5.32
2018-02-15T20:50:11.779Z,5.27
2018-02-15T20:52:48.857Z,5.30
2018-02-15T20:55:25.880Z,5.15
2018-02-15T20:57:56.930Z,4.92
2018-02-15T21:00:27.948Z,4.84
2018-02-15T21:02:58.967Z,5.00
2018-02-15T21:05:30.017Z,5.20
2018-02-15T21:08:01.319Z,5.26
2018-02-15T21:10:32.373Z,5.24
2018-02-15T21:13:03.426Z,5.23
2018-02-15T21:15:34.494Z,5.23
2018-02-15T21:18:05.476Z,5.24
2018-02-15T21:20:36.533Z,5.21
2018-02-15T21:23:07.544Z,5.18
2018-02-15T21:25:38.593Z,5.14
2018-02-15T21:28:09.625Z,5.16
2018-02-15T21:30:40.675Z,5.06
2018-02-15T21:33:11.707Z,5.11
2018-02-15T21:35:42.762Z,5.18
2018-02-15T21:38:13.806Z,5.14
2018-02-15T21:40:44.831Z,5.07
2018-02-15T21:43:15.875Z,5.08
2018-02-15T21:45:46.914Z,5.07
2018-02-15T21:48:17.946Z,5.02
2018-02-15T21:50:49.020Z,5.09
2018-02-15T21:53:20.136Z,5.12
2018-02-15T21:55:51.223Z,5.20
2018-02-15T21:58:22.358Z,5.25
2018-02-15T22:00:53.368Z,5.22
2018-02-15T22:03:24.432Z,5.25
2018-02-15T22:05:55.488Z,5.28
2018-02-15T22:08:26.504Z,5.33
2018-02-15T22:10:58.450Z,5.36
2018-02-15T22:13:29.484Z,5.40
2018-02-15T22:16:00.495Z,5.41
2018-02-15T22:18:31.504Z,5.38
2018-02-15T22:21:02.581Z,5.38
2018-02-15T22:23:33.562Z,5.36
2018-02-15T22:26:04.571Z,5.36
2018-02-15T22:28:35.542Z,5.42
2018-02-15T22:31:06.527Z,5.46
2018-02-15T22:33:37.681Z,5.49
2018-02-15T22:36:08.690Z,5.49
2018-02-15T22:38:39.725Z,5.46
2018-02-15T22:41:10.704Z,5.48
2018-02-15T22:43:41.733Z,5.48
2018-02-15T22:46:12.740Z,5.51
2018-02-15T22:48:43.760Z,5.53
2018-02-15T22:51:14.792Z,5.59
2018-02-15T22:53:45.793Z,5.60
2018-02-15T22:56:16.803Z,5.67
2018-02-15T22:58:47.753Z,5.66
2018-02-15T23:01:18.759Z,5.57
2018-02-15T23:03:49.766Z,5.61
2018-02-15T23:06:20.766Z,5.63
2018-02-15T23:08:51.813Z,5.68
2018-02-15T23:11:22.816Z,5.66
2018-02-15T23:13:53.796Z,5.56
2018-02-15T23:16:24.768Z,5.44
2018-02-15T23:18:55.837Z,5.33
2018-02-15T23:21:26.844Z,5.18
2018-02-15T23:23:57.848Z,5.27
2018-02-15T23:26:28.840Z,5.25
2018-02-15T23:28:59.805Z,5.20
2018-02-15T23:31:30.789Z,5.17
2018-02-15T23:34:04.725Z,5.15
2018-02-15T23:36:35.740Z,5.10
2018-02-15T23:39:06.724Z,5.06
2018-02-15T23:41:37.745Z,5.03
2018-02-15T23:44:08.735Z,4.99
2018-02-15T23:46:39.712Z,4.90
2018-02-15T23:49:10.756Z,4.75
2018-02-15T23:51:41.779Z,4.69
2018-02-15T23:54:12.763Z,4.68
2018-02-15T23:56:43.780Z,4.72
2018-02-15T23:59:14.777Z,4.69
